Time;durP1;ratioP1;P1;durP2;ratioP2;P2;SDS_P1;SDS_P2;PMS_P1;PMS_P2;Temp;Humidity;BMP_temperature;BMP_pressure;BME280_temperature;BME280_humidity;BME280_pressure;Samples;Min_cycle;Max_cycle;Signal;HPM_P1;HPM_P2
2022/03/11 00:00:27;;;;;;;15.03;10.37;;;;;;;2.02;50.99;100496.88;5057344;28;20204;-57
2022/03/11 00:02:54;;;;;;;16.73;10.93;;;;;;;2.01;51.20;100487.50;5067571;28;20198;-57
2022/03/11 00:05:21;;;;;;;14.17;10.63;;;;;;;2.01;50.87;100495.09;5078241;28;20187;-57
2022/03/11 00:07:48;;;;;;;16.07;11.30;;;;;;;2.03;51.22;100487.63;5071317;28;20219;-57
2022/03/11 00:10:16;;;;;;;19.53;12.70;;;;;;;2.04;51.77;100489.34;5080881;28;20188;-57
2022/03/11 00:12:43;;;;;;;26.20;15.40;;;;;;;2.14;51.87;100505.25;5079550;28;20448;-57
2022/03/11 00:15:10;;;;;;;35.90;13.93;;;;;;;1.91;52.81;100499.47;5080733;28;20523;-57
2022/03/11 00:17:38;;;;;;;24.27;11.97;;;;;;;1.70;53.43;100499.78;5075856;28;20681;-57
2022/03/11 00:20:07;;;;;;;33.97;12.60;;;;;;;1.72;54.49;100495.72;5079929;28;20273;-57
2022/03/11 00:22:35;;;;;;;17.43;10.23;;;;;;;1.73;55.02;100502.53;5084755;28;20221;-57
2022/03/11 00:25:02;;;;;;;16.60;10.27;;;;;;;1.60;55.52;100497.44;5083193;28;20194;-57
2022/03/11 00:27:29;;;;;;;15.63;10.27;;;;;;;1.47;56.91;100502.44;5082784;28;20175;-57
2022/03/11 00:29:56;;;;;;;17.77;11.37;;;;;;;1.35;57.90;100501.59;5082742;28;20282;-56
2022/03/11 00:32:23;;;;;;;13.53;9.87;;;;;;;1.34;58.41;100498.97;5083621;28;20211;-57
2022/03/11 00:34:51;;;;;;;16.30;11.13;;;;;;;1.16;58.88;100496.06;5084022;28;20188;-57
2022/03/11 00:37:18;;;;;;;18.13;12.18;;;;;;;1.12;60.00;100495.00;5084453;28;20519;-56
2022/03/11 00:39:45;;;;;;;15.27;11.30;;;;;;;1.09;60.08;100497.31;5083355;28;20191;-57
2022/03/11 00:42:11;;;;;;;14.33;10.70;;;;;;;1.10;60.17;100493.97;5082329;28;20183;-57
2022/03/11 00:44:40;;;;;;;18.00;10.83;;;;;;;1.08;59.26;100493.00;5075824;28;20714;-57
2022/03/11 00:47:07;;;;;;;13.83;10.33;;;;;;;0.98;58.97;100498.22;5073765;28;20203;-56
2022/03/11 00:49:34;;;;;;;12.10;9.40;;;;;;;1.03;59.06;100495.97;5073551;28;20207;-56
2022/03/11 00:52:03;;;;;;;13.50;9.47;;;;;;;1.02;59.15;100490.03;5073241;28;20226;-57
2022/03/11 00:54:30;;;;;;;11.17;8.97;;;;;;;0.95;59.06;100500.53;5073842;28;20218;-57
2022/03/11 00:56:57;;;;;;;11.97;8.73;;;;;;;0.82;58.98;100494.50;5073291;28;20278;-56
2022/03/11 00:59:24;;;;;;;15.73;9.13;;;;;;;0.88;58.57;100494.94;5073131;28;20235;-56
2022/03/11 01:01:51;;;;;;;16.97;10.47;;;;;;;0.91;59.62;100500.19;5073414;28;20195;-57
2022/03/11 01:04:18;;;;;;;10.27;8.13;;;;;;;0.87;59.04;100489.00;5073205;28;20191;-56
2022/03/11 01:06:45;;;;;;;13.87;8.83;;;;;;;0.97;58.97;100501.50;5073121;28;20198;-56
2022/03/11 01:09:13;;;;;;;9.70;7.57;;;;;;;0.98;58.41;100494.78;5073234;28;20195;-56
2022/03/11 01:11:40;;;;;;;11.02;9.25;;;;;;;0.91;58.14;100505.25;5072281;28;20464;-56
2022/03/11 01:14:07;;;;;;;12.00;8.80;;;;;;;0.86;58.23;100501.50;5072975;28;20234;-56
2022/03/11 01:16:34;;;;;;;8.20;6.93;;;;;;;0.78;58.09;100505.16;5073259;28;20195;-56
2022/03/11 01:19:01;;;;;;;10.20;8.90;;;;;;;0.70;58.46;100498.69;5072033;28;20442;-56
2022/03/11 01:21:28;;;;;;;7.80;7.00;;;;;;;0.66;58.99;100509.38;5072813;28;20183;-56
2022/03/11 01:23:55;;;;;;;9.43;7.67;;;;;;;0.56;59.15;100510.34;5072889;28;20200;-56
2022/03/11 01:26:23;;;;;;;10.13;8.10;;;;;;;0.62;59.39;100509.91;5072833;28;20282;-56
2022/03/11 01:28:50;;;;;;;10.00;7.70;;;;;;;0.66;58.97;100514.44;5072962;28;20274;-56
2022/03/11 01:31:18;;;;;;;9.27;7.33;;;;;;;0.53;59.24;100513.53;5072120;28;20314;-56
2022/03/11 01:33:46;;;;;;;11.03;7.60;;;;;;;0.35;61.12;100502.13;5072699;28;20704;-57
2022/03/11 01:36:14;;;;;;;9.30;7.43;;;;;;;0.00;63.31;100507.09;5072548;28;20199;-56
2022/03/11 01:38:41;;;;;;;10.40;7.57;;;;;;;-0.07;64.55;100509.09;5072559;28;20662;-56
2022/03/11 01:41:09;;;;;;;9.40;8.07;;;;;;;-0.17;66.10;100510.06;5072786;28;20196;-57
2022/03/11 01:43:53;;;;;;;10.07;7.70;;;;;;;-0.30;67.00;100514.94;5072416;28;20187;-57
2022/03/11 01:46:20;;;;;;;10.77;7.60;;;;;;;-0.44;68.11;100522.25;5072610;28;20191;-57
2022/03/11 01:48:47;;;;;;;10.83;7.20;;;;;;;-0.44;68.03;100523.13;5072431;28;20196;-57
2022/03/11 01:51:14;;;;;;;11.00;8.40;;;;;;;-0.53;68.94;100516.50;5071721;28;20434;-56
2022/03/11 01:53:41;;;;;;;7.57;6.77;;;;;;;-0.67;70.24;100518.88;5072220;28;20188;-57
2022/03/11 01:56:08;;;;;;;9.63;7.40;;;;;;;-0.63;70.27;100513.28;5072563;28;20203;-57
2022/03/11 01:58:36;;;;;;;9.17;7.90;;;;;;;-0.64;70.84;100509.00;5071846;28;20239;-57
2022/03/11 02:01:04;;;;;;;9.53;7.70;;;;;;;-0.65;69.68;100519.84;5071992;28;20294;-57
2022/03/11 02:03:32;;;;;;;8.93;7.73;;;;;;;-0.67;70.24;100523.91;5072122;28;20198;-57
2022/03/11 02:06:01;;;;;;;8.50;7.47;;;;;;;-0.78;71.43;100521.34;5072136;28;20543;-57
2022/03/11 02:08:28;;;;;;;10.47;8.73;;;;;;;-0.77;71.67;100521.44;5072198;28;20192;-56
2022/03/11 02:10:55;;;;;;;10.80;8.40;;;;;;;-0.81;71.95;100521.09;5071927;28;20195;-57
2022/03/11 02:13:22;;;;;;;8.97;7.77;;;;;;;-0.74;71.67;100516.63;5072012;28;20681;-57
2022/03/11 02:15:49;;;;;;;9.57;7.63;;;;;;;-0.75;71.62;100519.03;5058853;28;20196;-57
2022/03/11 02:18:17;;;;;;;9.23;7.90;;;;;;;-0.73;72.10;100515.00;5071989;28;20188;-57
2022/03/11 02:20:46;;;;;;;9.47;7.70;;;;;;;-0.62;71.57;100514.16;5072149;28;20282;-57
2022/03/11 02:23:14;;;;;;;10.47;7.67;;;;;;;-0.57;70.42;100517.91;5070710;28;20192;-57
2022/03/11 02:25:43;;;;;;;11.27;9.93;;;;;;;-0.55;70.68;100518.03;5071109;28;20441;-58
2022/03/11 02:28:09;;;;;;;9.13;8.13;;;;;;;-0.42;69.66;100525.78;5071540;28;20666;-57
2022/03/11 02:30:36;;;;;;;11.70;8.47;;;;;;;-0.35;69.33;100523.81;5071571;28;20191;-57
2022/03/11 02:33:03;;;;;;;11.57;8.63;;;;;;;-0.26;69.85;100531.19;5071754;28;20223;-57
2022/03/11 02:35:30;;;;;;;9.67;8.10;;;;;;;-0.25;69.10;100521.22;5071386;28;20195;-57
2022/03/11 02:37:57;;;;;;;10.00;8.00;;;;;;;-0.15;68.68;100530.38;5071438;28;20191;-57
2022/03/11 02:40:24;;;;;;;10.83;7.50;;;;;;;-0.15;67.32;100538.81;5071294;28;20290;-58
2022/03/11 02:42:53;;;;;;;10.53;7.97;;;;;;;-0.18;68.21;100537.72;5070497;28;20625;-58
2022/03/11 02:45:19;;;;;;;10.63;8.27;;;;;;;-0.08;67.88;100528.41;5071653;28;20222;-57
2022/03/11 02:47:46;;;;;;;12.00;10.17;;;;;;;-0.01;66.93;100538.22;5071369;28;20574;-58
2022/03/11 02:50:13;;;;;;;12.83;9.50;;;;;;;0.06;66.17;100537.00;5071342;28;20194;-58
2022/03/11 02:52:40;;;;;;;12.40;9.67;;;;;;;0.05;66.16;100542.84;5071056;28;20227;-57
2022/03/11 02:55:08;;;;;;;10.93;8.63;;;;;;;0.09;62.42;100544.81;5071187;28;20196;-57
2022/03/11 02:57:35;;;;;;;12.53;9.30;;;;;;;0.09;63.13;100544.81;5070981;28;20278;-57
2022/03/11 03:00:04;;;;;;;12.13;9.47;;;;;;;0.11;61.42;100538.22;5070916;28;20230;-57
2022/03/11 03:02:31;;;;;;;9.30;7.47;;;;;;;-0.07;62.40;100534.34;5071256;28;20271;-57
2022/03/11 03:04:58;;;;;;;9.50;8.27;;;;;;;-0.18;61.97;100541.13;5070865;28;20198;-57
2022/03/11 03:07:25;;;;;;;10.37;8.40;;;;;;;-0.16;63.10;100541.22;5071081;28;20658;-57
2022/03/11 03:09:52;;;;;;;10.10;7.83;;;;;;;-0.25;59.69;100543.06;5070793;28;20191;-57
2022/03/11 03:12:19;;;;;;;11.67;8.47;;;;;;;-0.28;59.95;100545.38;5070674;28;20216;-57
2022/03/11 03:14:46;;;;;;;11.73;8.27;;;;;;;-0.33;60.83;100539.94;5071055;28;20200;-57
2022/03/11 03:17:14;;;;;;;9.03;7.43;;;;;;;-0.33;59.92;100541.63;5070952;28;20195;-57
2022/03/11 03:19:41;;;;;;;10.17;7.67;;;;;;;-0.40;58.13;100544.44;5070585;28;20191;-57
2022/03/11 03:22:08;;;;;;;9.30;7.20;;;;;;;-0.44;58.74;100547.50;5070630;28;20700;-57
2022/03/11 03:24:35;;;;;;;10.97;8.60;;;;;;;-0.55;59.47;100518.03;5070665;28;20188;-57
2022/03/11 03:27:02;;;;;;;9.47;7.40;;;;;;;-0.41;59.47;100553.63;5070466;28;20194;-57
2022/03/11 03:29:29;;;;;;;14.60;8.03;;;;;;;-0.31;59.31;100550.19;5070502;28;20191;-57
2022/03/11 03:31:57;;;;;;;10.82;9.52;;;;;;;-0.26;58.93;100548.88;5070015;28;20457;-57
2022/03/11 03:34:29;;;;;;;9.67;8.03;;;;;;;-0.41;58.28;100503.16;5070755;28;20622;-57
2022/03/11 03:36:56;;;;;;;10.50;8.20;;;;;;;-0.01;57.32;100555.00;5070564;28;20188;-57
2022/03/11 03:39:23;;;;;;;9.30;7.07;;;;;;;-0.09;57.37;100545.97;5070436;28;20546;-57
2022/03/11 03:41:50;;;;;;;10.03;7.77;;;;;;;-0.07;58.03;100549.50;5070345;28;20281;-57
2022/03/11 03:44:17;;;;;;;10.17;8.53;;;;;;;-0.09;57.84;100546.88;5070367;28;20201;-57
2022/03/11 03:46:44;;;;;;;9.07;6.93;;;;;;;-0.21;55.13;100557.69;5070327;28;20198;-57
2022/03/11 03:49:11;;;;;;;9.17;7.03;;;;;;;-0.40;54.56;100552.00;5070264;28;20282;-57
2022/03/11 03:51:40;;;;;;;12.60;7.27;;;;;;;-0.42;55.05;100551.00;5070077;28;20280;-57
2022/03/11 03:54:07;;;;;;;8.23;6.50;;;;;;;-0.43;54.34;100554.28;5070216;28;20602;-57
2022/03/11 03:56:36;;;;;;;8.73;7.28;;;;;;;-0.30;54.62;100557.00;5069791;28;20440;-58
2022/03/11 03:59:04;;;;;;;9.37;7.40;;;;;;;-0.38;53.85;100555.50;5070210;28;20223;-58
2022/03/11 04:01:33;;;;;;;10.67;7.43;;;;;;;-0.39;54.31;100552.13;5070184;28;20278;-58
2022/03/11 04:04:00;;;;;;;9.30;6.93;;;;;;;-0.58;54.61;100532.94;5069941;28;20183;-58
2022/03/11 04:06:27;;;;;;;10.50;7.13;;;;;;;-0.43;54.75;100562.75;5070081;28;20274;-59
2022/03/11 04:08:57;;;;;;;8.30;6.13;;;;;;;-0.52;54.01;100551.09;5070559;28;20260;-59
2022/03/11 04:11:24;;;;;;;9.00;6.73;;;;;;;-0.47;53.14;100573.41;5070019;28;20285;-59
2022/03/11 04:13:51;;;;;;;7.77;6.60;;;;;;;-0.54;53.77;100566.09;5070285;28;20215;-59
2022/03/11 04:16:19;;;;;;;9.23;6.80;;;;;;;-0.62;53.69;100573.09;5070074;28;20601;-60
2022/03/11 04:18:46;;;;;;;9.63;7.00;;;;;;;-0.77;54.36;100558.41;5070107;28;20203;-59
2022/03/11 04:21:13;;;;;;;7.50;6.73;;;;;;;-0.67;55.95;100583.59;5070215;28;20276;-59
2022/03/11 04:23:41;;;;;;;15.00;7.33;;;;;;;-0.73;56.90;100581.47;5070286;28;20187;-59
2022/03/11 04:26:09;;;;;;;9.83;7.03;;;;;;;-0.68;57.79;100581.81;5070201;28;20278;-58
2022/03/11 04:28:37;;;;;;;10.40;7.90;;;;;;;-0.73;58.21;100580.59;5069962;28;20198;-59
2022/03/11 04:31:04;;;;;;;11.80;9.33;;;;;;;-0.52;60.43;100581.38;5068917;28;20434;-59
2022/03/11 04:33:32;;;;;;;11.27;7.73;;;;;;;-0.43;61.05;100589.63;5069913;28;20203;-59
2022/03/11 04:35:59;;;;;;;10.37;7.20;;;;;;;-0.57;60.77;100586.03;5070026;28;20199;-59
2022/03/11 04:38:26;;;;;;;8.83;7.50;;;;;;;-0.64;60.74;100588.88;5069684;28;20195;-60
2022/03/11 04:40:53;;;;;;;9.87;7.53;;;;;;;-0.56;62.95;100591.97;5069562;28;20192;-59
2022/03/11 04:43:22;;;;;;;9.63;7.70;;;;;;;-0.46;64.27;100591.91;5069780;28;20650;-59
2022/03/11 04:45:49;;;;;;;9.47;7.57;;;;;;;-0.48;61.76;100599.38;5069707;28;20195;-60
2022/03/11 04:48:16;;;;;;;10.07;7.67;;;;;;;-0.46;61.86;100595.31;5069787;28;20194;-60
2022/03/11 04:50:43;;;;;;;12.27;7.87;;;;;;;-0.41;61.65;100590.66;5069579;28;20191;-59
2022/03/11 04:53:10;;;;;;;9.00;7.40;;;;;;;-0.33;61.55;100587.91;5069558;28;20720;-59
2022/03/11 04:55:37;;;;;;;10.77;7.53;;;;;;;-0.32;61.61;100584.66;5069768;28;20226;-59
2022/03/11 04:58:04;;;;;;;12.37;8.50;;;;;;;-0.24;61.86;100582.69;5069549;28;20210;-58
2022/03/11 05:00:32;;;;;;;8.50;7.37;;;;;;;-0.12;61.24;100587.03;5053563;28;20208;-59
2022/03/11 05:03:01;;;;;;;10.23;9.13;;;;;;;0.01;61.87;100593.88;5069542;28;20202;-59
2022/03/11 05:05:29;;;;;;;14.57;9.17;;;;;;;0.05;61.68;100585.78;5069573;28;20196;-59
2022/03/11 05:07:55;;;;;;;12.23;8.60;;;;;;;0.13;62.45;100589.75;5072802;28;20274;-58
2022/03/11 05:10:22;;;;;;;10.38;8.57;;;;;;;0.17;61.92;100594.25;5072760;28;20433;-58
2022/03/11 05:12:49;;;;;;;11.20;8.30;;;;;;;0.21;60.77;100590.31;5072956;28;20225;-59
2022/03/11 05:15:16;;;;;;;9.97;8.77;;;;;;;0.33;61.21;100598.81;5073156;28;20646;-59
2022/03/11 05:17:44;;;;;;;11.83;8.63;;;;;;;0.39;60.59;100606.81;5072962;28;20634;-58
2022/03/11 05:20:12;;;;;;;12.60;8.27;;;;;;;0.32;61.34;100600.47;5072685;28;20206;-59
2022/03/11 05:22:41;;;;;;;10.83;7.97;;;;;;;0.29;61.49;100596.81;5072545;28;20200;-59
2022/03/11 05:25:09;;;;;;;14.13;9.27;;;;;;;0.42;61.90;100607.94;5072902;28;20589;-59
2022/03/11 05:27:37;;;;;;;10.50;8.30;;;;;;;0.27;60.68;100586.59;5072686;28;20642;-59
2022/03/11 05:30:05;;;;;;;13.37;9.00;;;;;;;0.46;60.95;100625.09;5072573;28;20188;-60
2022/03/11 05:32:32;;;;;;;15.03;9.50;;;;;;;0.35;61.07;100620.91;5072697;28;20215;-59
2022/03/11 05:35:00;;;;;;;15.00;9.93;;;;;;;0.32;61.07;100629.91;5072138;28;20282;-59
2022/03/11 05:37:27;;;;;;;14.60;10.03;;;;;;;0.42;61.01;100623.09;5072687;28;20283;-59
2022/03/11 05:39:54;;;;;;;13.63;9.67;;;;;;;0.39;60.04;100619.47;5072525;28;20218;-59
2022/03/11 05:42:21;;;;;;;12.60;9.03;;;;;;;0.46;60.15;100624.22;5072748;28;20218;-60
2022/03/11 05:44:48;;;;;;;16.77;10.13;;;;;;;0.42;60.64;100622.22;5071925;28;20554;-60
2022/03/11 05:47:15;;;;;;;14.23;9.10;;;;;;;0.43;60.52;100621.47;5072739;28;20191;-60
2022/03/11 05:49:41;;;;;;;16.47;10.67;;;;;;;0.53;61.24;100621.38;5072385;28;20192;-59
2022/03/11 05:52:10;;;;;;;13.23;10.03;;;;;;;0.60;60.68;100613.47;5072551;28;20191;-59
2022/03/11 05:54:37;;;;;;;19.03;12.23;;;;;;;0.56;61.87;100621.59;5072511;28;20226;-60
2022/03/11 05:57:04;;;;;;;15.43;10.53;;;;;;;0.59;62.34;100621.81;5072433;28;20310;-60
2022/03/11 05:59:32;;;;;;;15.67;11.80;;;;;;;0.54;61.87;100618.06;5071537;28;20231;-59
2022/03/11 06:01:59;;;;;;;23.73;13.30;;;;;;;0.58;62.27;100620.94;5071958;28;20223;-60
2022/03/11 06:04:26;;;;;;;24.07;12.73;;;;;;;0.64;62.67;100633.16;5072347;28;20191;-60
2022/03/11 06:06:52;;;;;;;17.77;11.07;;;;;;;0.67;62.18;100637.53;5072133;28;20195;-60
2022/03/11 06:09:21;;;;;;;15.03;10.60;;;;;;;0.68;61.00;100634.25;5072414;28;20199;-59
2022/03/11 06:11:48;;;;;;;17.67;9.20;;;;;;;0.68;60.39;100626.66;5071959;28;20665;-59
2022/03/11 06:14:14;;;;;;;11.70;8.87;;;;;;;0.66;60.22;100633.28;5071944;28;20310;-60
2022/03/11 06:16:41;;;;;;;12.77;9.70;;;;;;;0.76;60.57;100638.22;5071670;28;20191;-58
2022/03/11 06:19:08;;;;;;;17.70;11.68;;;;;;;0.97;59.97;100634.69;5070549;28;20536;-59
2022/03/11 06:21:35;;;;;;;13.40;9.67;;;;;;;1.19;59.37;100641.41;5071535;28;20191;-59
2022/03/11 06:24:03;;;;;;;16.70;9.37;;;;;;;1.28;58.54;100641.19;5071244;28;20290;-60
2022/03/11 06:26:31;;;;;;;14.87;9.50;;;;;;;1.40;58.89;100644.56;5071426;28;20239;-60
2022/03/11 06:28:58;;;;;;;10.40;8.47;;;;;;;1.09;58.90;100615.34;5071687;28;20192;-60
2022/03/11 06:31:25;;;;;;;13.00;9.50;;;;;;;1.35;59.12;100647.53;5071423;28;20175;-59
2022/03/11 06:33:53;;;;;;;14.67;8.40;;;;;;;1.45;59.08;100655.94;5076042;28;20642;-60
2022/03/11 06:36:20;;;;;;;12.07;8.43;;;;;;;1.53;58.25;100649.75;5077425;28;20194;-60
2022/03/11 06:38:46;;;;;;;13.83;9.13;;;;;;;1.61;58.39;100653.69;5081044;28;20219;-60
2022/03/11 06:41:13;;;;;;;13.83;9.87;;;;;;;1.73;58.52;100654.53;5074837;28;20682;-59
2022/03/11 06:43:42;;;;;;;12.20;9.23;;;;;;;1.83;57.09;100650.09;5079186;28;20294;-59
2022/03/11 06:46:08;;;;;;;21.97;11.43;;;;;;;1.94;56.76;100659.31;5080941;28;20269;-59
2022/03/11 06:48:36;;;;;;;12.93;9.23;;;;;;;1.91;56.46;100648.97;5078351;28;20197;-59
2022/03/11 06:51:04;;;;;;;13.90;9.17;;;;;;;1.99;54.98;100663.94;5081559;28;20189;-59
2022/03/11 06:53:31;;;;;;;11.77;9.37;;;;;;;1.79;55.01;100675.22;5081141;28;20215;-59
2022/03/11 06:56:00;;;;;;;11.73;8.87;;;;;;;1.81;54.93;100667.75;5079451;28;20725;-59
2022/03/11 06:58:27;;;;;;;11.60;8.87;;;;;;;1.86;55.92;100671.47;5074202;28;20793;-59
2022/03/11 07:00:56;;;;;;;14.03;9.10;;;;;;;1.99;55.93;100660.50;5073565;28;20195;-60
2022/03/11 07:03:23;;;;;;;11.73;9.50;;;;;;;1.96;55.43;100653.56;5076858;28;20187;-59
2022/03/11 07:05:50;;;;;;;14.13;8.83;;;;;;;2.00;56.14;100669.88;5080075;28;20214;-60
2022/03/11 07:08:17;;;;;;;11.40;8.47;;;;;;;2.10;55.42;100669.72;5083588;28;20219;-60
2022/03/11 07:10:43;;;;;;;10.77;8.53;;;;;;;2.12;55.57;100665.63;5083136;28;20219;-58
2022/03/11 07:13:10;;;;;;;10.80;8.77;;;;;;;2.22;55.65;100660.44;5074762;28;20700;-57
2022/03/11 07:15:37;;;;;;;12.63;9.30;;;;;;;2.19;55.16;100668.72;5080439;28;20433;-58
2022/03/11 07:18:06;;;;;;;11.03;8.60;;;;;;;2.23;54.61;100660.53;5079989;28;20282;-57
2022/03/11 07:20:33;;;;;;;12.30;8.17;;;;;;;2.42;54.71;100657.56;5080904;28;20195;-58
2022/03/11 07:23:00;;;;;;;12.70;9.27;;;;;;;2.54;54.23;100666.00;5075933;28;20274;-59
2022/03/11 07:25:27;;;;;;;11.97;9.30;;;;;;;2.41;54.21;100655.81;5079813;28;20179;-60
2022/03/11 07:27:54;;;;;;;14.53;9.17;;;;;;;2.41;54.30;100655.81;5080024;28;20188;-59
2022/03/11 07:30:21;;;;;;;15.20;9.17;;;;;;;2.49;53.90;100648.72;5069761;28;20203;-60
2022/03/11 07:32:50;;;;;;;12.63;9.40;;;;;;;2.52;53.31;100653.97;5073426;28;20191;-59
2022/03/11 07:35:18;;;;;;;11.43;9.13;;;;;;;2.53;53.01;100655.75;5073038;28;20610;-60
2022/03/11 07:37:45;;;;;;;13.43;9.13;;;;;;;2.56;52.41;100651.75;5073239;28;20179;-60
2022/03/11 07:40:13;;;;;;;17.70;10.07;;;;;;;2.64;52.48;100650.59;5070726;28;20203;-60
2022/03/11 07:42:42;;;;;;;12.17;9.27;;;;;;;2.40;51.04;100656.56;5080084;28;20190;-60
2022/03/11 07:45:12;;;;;;;13.87;9.53;;;;;;;2.45;51.03;100662.84;5076692;28;20256;-58
2022/03/11 07:47:40;;;;;;;14.03;10.10;;;;;;;2.49;50.71;100651.25;5060141;28;20196;-60
2022/03/11 07:50:08;;;;;;;13.07;9.27;;;;;;;2.52;50.61;100659.94;5051067;28;20249;-59
2022/03/11 07:52:37;;;;;;;12.40;9.67;;;;;;;2.33;50.68;100656.97;5076430;28;21113;-60
2022/03/11 07:55:04;;;;;;;13.47;10.30;;;;;;;2.33;51.33;100667.94;5076659;28;20273;-60
2022/03/11 07:57:32;;;;;;;12.63;9.63;;;;;;;2.26;50.62;100668.34;5066843;28;20222;-60
2022/03/11 08:00:00;;;;;;;13.40;9.37;;;;;;;2.16;50.39;100672.69;5077821;28;20239;-60
2022/03/11 08:02:29;;;;;;;11.80;9.40;;;;;;;2.16;49.72;100670.16;5072445;28;20195;-59
2022/03/11 08:04:57;;;;;;;12.40;9.83;;;;;;;2.21;49.83;100667.16;5076014;28;20196;-60
2022/03/11 08:07:24;;;;;;;10.67;9.23;;;;;;;2.26;49.67;100664.91;5075754;28;20570;-59
2022/03/11 08:09:52;;;;;;;12.77;8.93;;;;;;;2.20;48.55;100664.50;5075468;28;20301;-57
2022/03/11 08:12:20;;;;;;;11.87;9.03;;;;;;;1.77;48.56;100666.66;5069947;28;20292;-61
2022/03/11 08:14:48;;;;;;;10.10;8.00;;;;;;;1.86;48.27;100670.59;5069780;28;20277;-59
2022/03/11 08:17:15;;;;;;;11.87;9.13;;;;;;;2.10;48.09;100664.66;5069581;28;20198;-60
2022/03/11 08:19:42;;;;;;;13.53;9.40;;;;;;;2.06;48.26;100662.72;5069773;28;20674;-59
2022/03/11 08:22:11;;;;;;;12.53;9.43;;;;;;;2.31;48.06;100656.84;5069976;28;20256;-60
2022/03/11 08:24:38;;;;;;;12.23;9.17;;;;;;;2.50;48.64;100653.88;5069693;28;20196;-59
2022/03/11 08:27:06;;;;;;;14.98;11.20;;;;;;;2.50;48.00;100658.94;5068367;28;20441;-60
2022/03/11 08:29:34;;;;;;;13.43;11.23;;;;;;;2.36;47.74;100667.31;5069705;28;20611;-59
2022/03/11 08:32:02;;;;;;;16.50;9.87;;;;;;;2.61;47.46;100663.06;5069819;28;20187;-60
2022/03/11 08:34:29;;;;;;;9.87;8.20;;;;;;;2.51;44.85;100659.81;5071372;28;20298;-61
2022/03/11 08:36:56;;;;;;;14.63;8.20;;;;;;;2.78;43.64;100665.06;5071210;28;20253;-60
2022/03/11 08:39:23;;;;;;;9.83;8.70;;;;;;;2.80;45.26;100658.41;5069290;28;20523;-59
2022/03/11 08:41:50;;;;;;;14.10;9.17;;;;;;;2.81;46.38;100664.38;5071007;28;20211;-60
2022/03/11 08:44:18;;;;;;;16.07;9.97;;;;;;;2.79;46.37;100660.88;5071578;28;20199;-59
2022/03/11 08:46:45;;;;;;;14.03;11.17;;;;;;;2.81;46.53;100660.19;5082324;28;20436;-60
2022/03/11 08:49:12;;;;;;;13.63;9.60;;;;;;;2.74;46.78;100659.69;5084188;28;20195;-60
2022/03/11 08:51:39;;;;;;;12.73;10.23;;;;;;;2.86;46.92;100653.75;5076027;28;20198;-60
2022/03/11 08:54:06;;;;;;;13.07;10.17;;;;;;;2.50;47.03;100650.47;5067948;28;20712;-60
2022/03/11 08:56:33;;;;;;;11.47;9.60;;;;;;;2.56;47.70;100651.75;5073530;28;20688;-60
2022/03/11 08:59:00;;;;;;;14.13;10.73;;;;;;;2.69;47.44;100654.28;5072579;28;20215;-60
2022/03/11 09:01:28;;;;;;;15.60;10.10;;;;;;;2.64;47.06;100653.13;5080961;28;20191;-60
2022/03/11 09:03:55;;;;;;;12.83;9.30;;;;;;;2.44;47.49;100645.00;5079503;28;20195;-60
2022/03/11 09:06:24;;;;;;;17.93;9.17;;;;;;;2.32;48.43;100648.47;5072742;28;20294;-60
2022/03/11 09:08:51;;;;;;;12.47;9.27;;;;;;;2.73;47.39;100640.16;5079046;28;20192;-60
2022/03/11 09:11:18;;;;;;;11.27;9.20;;;;;;;2.78;46.43;100646.41;5083093;28;20190;-60
2022/03/11 09:13:47;;;;;;;10.83;7.43;;;;;;;1.97;46.80;100641.78;5081092;28;20199;-61
2022/03/11 09:16:14;;;;;;;11.50;8.67;;;;;;;1.92;48.33;100646.56;5080448;28;20288;-60
2022/03/11 09:18:43;;;;;;;13.68;11.07;;;;;;;1.94;48.81;100636.50;5073644;28;20453;-60
2022/03/11 09:21:09;;;;;;;14.30;10.40;;;;;;;2.37;47.61;100636.97;5081164;28;20283;-59
2022/03/11 09:23:37;;;;;;;13.27;9.80;;;;;;;2.58;47.76;100636.66;5075510;28;20192;-60
2022/03/11 09:26:04;;;;;;;14.48;10.23;;;;;;;2.92;46.38;100628.78;5076432;28;20991;-59
2022/03/11 09:28:31;;;;;;;8.80;7.83;;;;;;;3.11;45.37;100630.81;5082532;28;20230;-60
2022/03/11 09:30:58;;;;;;;14.17;8.80;;;;;;;3.11;44.15;100628.28;5080988;28;20188;-60
2022/03/11 09:33:25;;;;;;;9.90;8.10;;;;;;;2.93;44.25;100622.94;5080980;28;20187;-60
2022/03/11 09:35:54;;;;;;;10.03;8.23;;;;;;;3.02;44.62;100630.25;5072145;28;20681;-60
2022/03/11 09:38:20;;;;;;;11.53;8.87;;;;;;;3.16;44.74;100629.44;5072440;28;20199;-59
2022/03/11 09:40:48;;;;;;;10.07;8.57;;;;;;;3.18;44.64;100619.41;5072067;28;20543;-60
2022/03/11 09:43:15;;;;;;;10.50;7.83;;;;;;;3.32;44.21;100631.31;5071997;28;20240;-61
2022/03/11 09:45:42;;;;;;;10.30;8.30;;;;;;;3.56;44.00;100625.22;5072108;28;20200;-60
2022/03/11 09:48:10;;;;;;;11.93;9.73;;;;;;;3.25;44.31;100621.53;5071584;28;20445;-60
2022/03/11 09:50:38;;;;;;;9.80;8.67;;;;;;;3.69;43.70;100617.53;5072015;28;20191;-61
2022/03/11 09:53:06;;;;;;;11.27;9.17;;;;;;;3.66;43.84;100611.38;5071503;28;20294;-61
2022/03/11 09:55:33;;;;;;;8.90;8.00;;;;;;;4.08;42.26;100611.44;5071887;28;20229;-60
2022/03/11 09:58:00;;;;;;;10.00;8.93;;;;;;;4.11;40.08;100609.09;5070774;28;20437;-59
2022/03/11 10:00:27;;;;;;;10.33;7.83;;;;;;;3.87;39.99;100611.06;5072060;28;20196;-60
2022/03/11 10:02:55;;;;;;;9.37;7.53;;;;;;;4.02;41.01;100614.50;5071751;28;20662;-59
2022/03/11 10:05:23;;;;;;;15.00;11.27;;;;;;;4.04;41.84;100618.00;5071772;28;20191;-59
2022/03/11 10:08:00;;;;;;;15.10;10.37;;;;;;;3.52;42.89;100616.50;5072007;28;20575;-59
2022/03/11 10:10:29;;;;;;;10.40;7.63;;;;;;;3.50;43.23;100601.97;5071943;28;20195;-60
2022/03/11 10:12:56;;;;;;;10.20;8.53;;;;;;;3.48;43.12;100593.38;5071491;28;20202;-61
2022/03/11 10:15:28;;;;;;;10.00;7.87;;;;;;;3.12;43.59;100603.78;5072010;28;20227;-59
2022/03/11 10:17:56;;;;;;;10.73;8.70;;;;;;;3.08;44.07;100605.22;5071533;28;20672;-59
2022/03/11 10:20:25;;;;;;;12.43;10.07;;;;;;;3.28;43.82;100589.59;5071030;28;20480;-60
2022/03/11 10:22:52;;;;;;;12.70;8.90;;;;;;;3.29;43.23;100590.47;5079602;28;20632;-60
2022/03/11 10:25:21;;;;;;;20.60;13.77;;;;;;;3.68;42.28;100597.97;5079422;28;20268;-58
2022/03/11 10:28:01;;;;;;;10.33;8.57;;;;;;;3.92;41.36;100589.31;5081104;28;20268;-58
2022/03/11 10:30:30;;;;;;;10.90;8.53;;;;;;;4.15;40.84;100589.00;5078966;28;20188;-58
2022/03/11 10:32:59;;;;;;;8.30;7.13;;;;;;;4.22;38.52;100574.09;5080328;28;20187;-59
2022/03/11 10:35:34;;;;;;;11.70;7.70;;;;;;;4.34;38.94;100583.31;5076072;28;20196;-58
2022/03/11 10:38:03;;;;;;;8.97;7.10;;;;;;;4.13;37.85;100576.97;5079349;28;20195;-58
2022/03/11 10:40:31;;;;;;;9.43;7.57;;;;;;;4.14;38.47;100571.13;5079813;28;20515;-58
2022/03/11 10:43:15;;;;;;;10.13;7.87;;;;;;;4.17;39.39;100571.31;5081143;28;20286;-58
2022/03/11 10:45:51;;;;;;;12.93;9.07;;;;;;;3.94;42.91;100564.84;5080239;28;20180;-58
2022/03/11 10:48:20;;;;;;;11.37;9.17;;;;;;;3.85;44.86;100558.34;5073851;28;20221;-58
2022/03/11 10:50:47;;;;;;;11.13;8.90;;;;;;;3.89;45.23;100557.75;5079951;28;20194;-58
2022/03/11 10:53:14;;;;;;;11.00;8.87;;;;;;;4.05;43.83;100556.19;5079275;28;20199;-58
2022/03/11 10:55:43;;;;;;;11.83;8.80;;;;;;;4.09;43.40;100553.03;5073979;28;20195;-58
2022/03/11 10:58:16;;;;;;;12.90;8.93;;;;;;;4.30;42.36;100552.53;5079722;28;20193;-57
2022/03/11 11:00:44;;;;;;;9.97;7.83;;;;;;;4.26;40.72;100546.38;5072655;28;20203;-58
2022/03/11 11:03:12;;;;;;;10.37;8.60;;;;;;;4.41;39.53;100551.50;5070504;28;20189;-57
2022/03/11 11:05:39;;;;;;;9.20;8.00;;;;;;;4.35;38.19;100540.94;5069889;28;20261;-56
2022/03/11 11:08:07;;;;;;;9.87;7.50;;;;;;;4.34;38.14;100542.63;5070326;28;20195;-55
2022/03/11 11:10:37;;;;;;;8.30;7.07;;;;;;;4.05;38.79;100524.81;5070179;28;20191;-57
2022/03/11 11:13:04;;;;;;;10.10;7.57;;;;;;;4.14;38.82;100526.22;5071303;28;20279;-65
2022/03/11 11:15:33;;;;;;;8.87;7.67;;;;;;;4.20;39.18;100525.72;5078800;28;20302;-58
2022/03/11 11:18:08;;;;;;;9.77;8.23;;;;;;;4.24;38.95;100532.72;5076161;28;20189;-58
2022/03/11 11:20:40;;;;;;;11.70;8.00;;;;;;;4.28;38.07;100534.66;5070878;28;20207;-59
2022/03/11 11:23:09;;;;;;;10.80;7.70;;;;;;;4.53;37.27;100530.16;5070400;28;20670;-59
2022/03/11 11:25:37;;;;;;;10.35;8.25;;;;;;;4.59;36.64;100527.94;5069896;28;20861;-58